Time;durP1;ratioP1;P1;durP2;ratioP2;P2;SDS_P1;SDS_P2;PMS_P1;PMS_P2;Temp;Humidity;BMP_temperature;BMP_pressure;BME280_temperature;BME280_humidity;BME280_pressure;Samples;Min_cycle;Max_cycle;Signal;HPM_P1;HPM_P2
2023/01/18 00:04:07;;;;;;;19.58;13.32;;;;;;;-1.25;88.99;97275.81;10461589;28;20053;-72
2023/01/18 00:09:09;;;;;;;17.23;12.65;;;;;;;-1.32;89.08;97294.91;10443251;28;20053;-73
2023/01/18 00:14:11;;;;;;;14.90;12.85;;;;;;;-1.26;89.20;97279.28;10443119;28;20069;-72
2023/01/18 00:19:13;;;;;;;13.30;12.00;;;;;;;-1.12;88.84;97277.13;10442695;28;20045;-71
2023/01/18 00:24:14;;;;;;;14.38;12.32;;;;;;;-1.06;88.46;97271.81;10460693;28;20045;-72
2023/01/18 00:29:16;;;;;;;14.45;11.68;;;;;;;-0.72;86.82;97273.34;10443127;28;20095;-72
2023/01/18 00:34:18;;;;;;;12.38;11.07;;;;;;;-0.86;87.88;97273.78;10443193;28;20040;-72
2023/01/18 00:39:19;;;;;;;16.98;12.70;;;;;;;-0.90;88.26;97279.91;10460137;28;20052;-72
2023/01/18 00:44:21;;;;;;;13.93;12.52;;;;;;;-0.87;88.07;97279.84;10461667;28;20509;-73
2023/01/18 00:49:23;;;;;;;17.83;13.90;;;;;;;-0.82;87.06;97285.69;10444470;28;20049;-74
2023/01/18 00:54:25;;;;;;;15.00;13.18;;;;;;;-0.71;86.20;97284.53;10461686;28;20112;-73
2023/01/18 00:59:26;;;;;;;20.52;15.25;;;;;;;-0.73;87.01;97287.16;10444144;28;20132;-71
2023/01/18 01:09:48;;;;;;;16.55;12.40;;;;;;;-0.68;87.46;97272.38;10460968;28;20037;-72
2023/01/18 01:30:55;;;;;;;12.23;9.98;;;;;;;-0.82;90.26;97284.84;10464723;28;20040;-73
2023/01/18 01:35:58;;;;;;;13.65;11.98;;;;;;;-0.93;91.64;97284.31;10462563;28;20041;-73
2023/01/18 01:41:01;;;;;;;19.63;11.38;;;;;;;-1.00;92.34;97270.78;10439952;28;20422;-73
2023/01/18 01:46:04;;;;;;;13.73;11.20;;;;;;;-0.93;92.12;97274.88;10439925;28;20041;-72
2023/01/18 01:51:06;;;;;;;13.57;12.18;;;;;;;-1.01;92.27;97266.53;10439973;28;20049;-73
2023/01/18 01:56:08;;;;;;;12.55;11.25;;;;;;;-0.91;91.22;97261.94;10439670;28;20504;-72
2023/01/18 02:01:11;;;;;;;13.00;11.65;;;;;;;-1.05;91.17;97258.03;10458305;28;20170;-72
2023/01/18 02:06:30;;;;;;;13.13;11.82;;;;;;;-0.87;90.06;97254.06;10440001;28;20084;-72
2023/01/18 02:11:32;;;;;;;12.82;10.65;;;;;;;-0.64;88.40;97258.50;10457260;28;20459;-72
2023/01/18 02:17:12;;;;;;;12.20;10.35;;;;;;;-0.69;88.44;97252.63;10440640;28;20143;-71
2023/01/18 02:22:43;;;;;;;11.77;9.95;;;;;;;-0.46;88.30;97259.66;10438680;28;20514;-73
2023/01/18 02:27:54;;;;;;;13.30;10.95;;;;;;;-0.67;88.24;97261.16;10456453;28;20040;-74
2023/01/18 02:33:07;;;;;;;11.38;9.82;;;;;;;-0.77;89.52;97264.94;10422825;28;20135;-73
2023/01/18 02:38:14;;;;;;;12.05;9.95;;;;;;;-0.69;89.10;97262.13;10462986;28;20132;-72
2023/01/18 02:48:41;;;;;;;14.40;11.73;;;;;;;-0.64;87.74;97258.50;10456641;28;20116;-72
2023/01/18 02:53:46;;;;;;;12.68;11.38;;;;;;;-0.74;87.93;97264.84;10457027;28;20044;-73
2023/01/18 02:59:15;;;;;;;13.25;11.52;;;;;;;-0.61;87.51;97260.97;10457259;28;20041;-72
2023/01/18 03:04:22;;;;;;;12.40;11.18;;;;;;;-0.37;86.06;97264.50;10455818;28;20037;-72
2023/01/18 03:09:25;;;;;;;14.57;10.98;;;;;;;-0.62;88.22;97267.03;10438265;28;20069;-72
2023/01/18 03:14:38;;;;;;;11.93;10.50;;;;;;;-0.35;86.71;97262.75;10456330;28;20421;-72
2023/01/18 03:20:02;;;;;;;13.30;10.63;;;;;;;-0.30;86.27;97265.16;10437271;28;20049;-73
2023/01/18 03:25:06;;;;;;;11.32;10.30;;;;;;;-0.27;86.51;97257.31;10438011;28;20036;-73
2023/01/18 03:35:31;;;;;;;11.98;10.85;;;;;;;-0.25;88.56;97273.59;10454788;28;20451;-72
2023/01/18 03:40:34;;;;;;;15.00;11.93;;;;;;;-0.30;89.35;97272.91;10455064;28;20047;-72
2023/01/18 03:45:40;;;;;;;12.35;10.45;;;;;;;-0.08;87.20;97271.31;10427110;28;20044;-72
2023/01/18 03:50:48;;;;;;;13.20;11.90;;;;;;;-0.36;89.78;97270.50;10444448;28;20132;-73
2023/01/18 03:55:57;;;;;;;12.05;10.88;;;;;;;-0.41;90.31;97268.06;10462213;28;20049;-73
2023/01/18 04:01:02;;;;;;;13.25;11.13;;;;;;;-0.60;92.06;97267.81;10445103;28;20045;-74
2023/01/18 04:06:05;;;;;;;14.90;11.55;;;;;;;-0.63;93.96;97269.66;10444415;28;20072;-73
2023/01/18 04:11:07;;;;;;;14.40;12.65;;;;;;;-0.65;95.45;97268.88;10461625;28;20045;-72
2023/01/18 04:16:09;;;;;;;14.30;12.65;;;;;;;-0.73;96.54;97270.84;10462436;28;20497;-72
2023/01/18 04:21:11;;;;;;;13.25;11.95;;;;;;;-0.46;96.40;97269.13;10461120;28;20049;-74
2023/01/18 04:26:15;;;;;;;22.23;12.90;;;;;;;-0.23;95.33;97271.78;10461620;28;20048;-72
2023/01/18 04:31:17;;;;;;;14.43;12.93;;;;;;;-0.28;96.26;97265.94;10460942;28;20097;-73
2023/01/18 04:36:20;;;;;;;12.95;11.65;;;;;;;-0.44;97.51;97277.66;10461348;28;20041;-72
2023/01/18 04:41:22;;;;;;;13.80;12.52;;;;;;;-0.52;98.83;97265.84;10460897;28;20135;-72
2023/01/18 04:46:24;;;;;;;12.80;11.63;;;;;;;-0.72;100.00;97264.78;10443571;28;20522;-73
2023/01/18 04:51:26;;;;;;;12.20;11.10;;;;;;;-0.70;100.00;97274.16;10461632;28;20045;-73
2023/01/18 04:56:28;;;;;;;11.70;10.60;;;;;;;-0.54;100.00;97292.59;10442238;28;20045;-72
2023/01/18 05:01:31;;;;;;;11.32;10.20;;;;;;;-0.74;100.00;97298.38;10460453;28;20143;-73
2023/01/18 05:06:33;;;;;;;12.82;11.68;;;;;;;-0.77;100.00;97312.19;10442095;28;20041;-73
2023/01/18 05:11:34;;;;;;;12.00;10.85;;;;;;;-0.74;100.00;97319.00;10425186;28;20513;-74
2023/01/18 05:16:36;;;;;;;12.93;11.88;;;;;;;-0.70;100.00;97312.88;10460029;28;20037;-73
2023/01/18 05:21:38;;;;;;;13.65;12.35;;;;;;;-0.71;100.00;97306.00;10460271;28;20041;-72
2023/01/18 05:26:39;;;;;;;15.07;13.65;;;;;;;-0.85;100.00;97303.84;10459739;28;20037;-73
2023/01/18 05:31:41;;;;;;;15.85;14.45;;;;;;;-0.88;100.00;97322.00;10459243;28;20049;-73
2023/01/18 05:36:43;;;;;;;14.73;13.43;;;;;;;-0.98;100.00;97327.44;10459911;28;20528;-73
2023/01/18 05:41:45;;;;;;;20.42;15.90;;;;;;;-0.96;100.00;97331.69;10459562;28;20055;-72
2023/01/18 05:46:46;;;;;;;20.35;18.35;;;;;;;-0.97;100.00;97329.13;10458873;28;20045;-73
2023/01/18 05:51:48;;;;;;;17.58;15.90;;;;;;;-0.91;100.00;97334.13;10458602;28;20491;-73
2023/01/18 05:56:50;;;;;;;18.45;16.90;;;;;;;-0.91;100.00;97331.56;10458864;28;20032;-72
2023/01/18 06:01:52;;;;;;;15.90;14.20;;;;;;;-0.65;100.00;97331.63;10458811;28;20060;-73
2023/01/18 06:06:54;;;;;;;15.20;13.80;;;;;;;-0.34;100.00;97334.09;10440837;28;20047;-72
2023/01/18 06:11:56;;;;;;;17.38;15.80;;;;;;;-0.74;100.00;97334.47;10458699;28;20045;-73
2023/01/18 06:16:57;;;;;;;19.60;16.30;;;;;;;-0.82;100.00;97326.97;10459040;28;20123;-71
2023/01/18 06:21:59;;;;;;;18.92;16.98;;;;;;;-0.80;100.00;97324.31;10423678;28;20410;-73
2023/01/18 06:27:02;;;;;;;18.80;17.00;;;;;;;-0.82;100.00;97324.38;10457038;28;20048;-72
2023/01/18 06:32:04;;;;;;;20.15;17.98;;;;;;;-0.76;100.00;97329.34;10439345;28;20502;-73
2023/01/18 06:37:07;;;;;;;20.40;17.92;;;;;;;-0.66;100.00;97332.53;10457061;28;20049;-73
2023/01/18 06:42:09;;;;;;;20.13;18.25;;;;;;;-0.69;100.00;97336.94;10456830;28;20414;-73
2023/01/18 06:47:10;;;;;;;24.85;17.90;;;;;;;-0.64;100.00;97340.22;10439354;28;20076;-72
2023/01/18 06:52:13;;;;;;;21.13;18.15;;;;;;;-0.66;100.00;97354.91;10457443;28;20061;-72
2023/01/18 06:57:15;;;;;;;19.67;17.88;;;;;;;-0.62;100.00;97354.75;10439369;28;20063;-72
2023/01/18 07:02:17;;;;;;;19.15;17.45;;;;;;;-0.66;100.00;97360.91;10438897;28;20128;-71
2023/01/18 07:07:18;;;;;;;19.08;17.23;;;;;;;-0.54;100.00;97360.50;10438733;28;20507;-72
2023/01/18 07:12:20;;;;;;;22.90;17.92;;;;;;;-0.63;100.00;97365.94;10456735;28;20041;-72
2023/01/18 07:17:22;;;;;;;22.80;19.13;;;;;;;-0.58;100.00;97364.06;10457815;28;20078;-72
2023/01/18 07:22:24;;;;;;;22.25;18.92;;;;;;;-0.59;100.00;97366.72;10465921;28;20483;-73
2023/01/18 07:27:25;;;;;;;22.55;20.40;;;;;;;-0.61;100.00;97368.50;10467442;28;20446;-72
2023/01/18 07:32:27;;;;;;;21.45;19.55;;;;;;;-0.34;100.00;97374.56;10464373;28;20418;-72
2023/01/18 07:37:29;;;;;;;22.98;18.00;;;;;;;-0.36;100.00;97384.06;10464527;28;20124;-72
2023/01/18 07:42:30;;;;;;;20.92;19.05;;;;;;;-0.38;100.00;97386.72;10467443;28;20067;-73
2023/01/18 07:47:32;;;;;;;23.60;19.15;;;;;;;-0.34;100.00;97402.97;10449316;28;20049;-72
2023/01/18 07:52:34;;;;;;;23.40;19.60;;;;;;;-0.30;100.00;97399.38;10468645;28;20049;-72
2023/01/18 07:57:36;;;;;;;21.52;18.55;;;;;;;-0.31;100.00;97413.16;10474391;28;20037;-72
2023/01/18 08:02:38;;;;;;;19.55;17.83;;;;;;;-0.24;100.00;97414.69;10465283;28;20052;-73
2023/01/18 08:07:40;;;;;;;21.45;19.48;;;;;;;-0.33;100.00;97423.53;10463514;28;20041;-72
2023/01/18 08:12:42;;;;;;;19.63;17.63;;;;;;;-0.20;100.00;97428.34;10444270;28;20110;-71
2023/01/18 08:17:43;;;;;;;21.65;18.40;;;;;;;-0.26;100.00;97424.22;10462243;28;20065;-72
2023/01/18 08:22:45;;;;;;;19.98;18.05;;;;;;;-0.26;100.00;97431.97;10462356;28;20045;-72
2023/01/18 08:27:47;;;;;;;20.42;18.65;;;;;;;-0.36;100.00;97430.53;10443610;28;20095;-72
2023/01/18 08:32:48;;;;;;;38.53;23.23;;;;;;;-0.18;100.00;97434.28;10460887;28;20037;-72
2023/01/18 08:37:51;;;;;;;18.33;16.80;;;;;;;-0.07;100.00;97447.72;10461329;28;20111;-72
2023/01/18 08:43:01;;;;;;;19.30;16.70;;;;;;;-0.12;100.00;97434.97;10461761;28;20094;-72
2023/01/18 08:48:05;;;;;;;20.20;18.00;;;;;;;-0.17;100.00;97454.09;10461161;28;20044;-72
2023/01/18 08:53:07;;;;;;;19.10;17.48;;;;;;;0.00;100.00;97462.16;10460508;28;20511;-74
2023/01/18 08:58:10;;;;;;;19.35;17.33;;;;;;;0.01;100.00;97458.69;10460932;28;20479;-72
2023/01/18 09:03:12;;;;;;;17.33;15.88;;;;;;;0.25;100.00;97467.41;10460219;28;20045;-72
2023/01/18 09:08:14;;;;;;;18.08;16.48;;;;;;;0.21;100.00;97479.56;10460499;28;20513;-73
2023/01/18 09:13:16;;;;;;;17.70;16.20;;;;;;;0.22;100.00;97483.84;10460136;28;20124;-73
2023/01/18 09:18:17;;;;;;;16.20;14.75;;;;;;;0.34;100.00;97490.34;10460804;28;20045;-72
2023/01/18 09:23:19;;;;;;;16.42;14.77;;;;;;;0.17;100.00;97490.03;10459684;28;20041;-72
2023/01/18 09:28:21;;;;;;;17.42;15.63;;;;;;;0.28;100.00;97508.66;10460131;28;20069;-73
2023/01/18 09:33:23;;;;;;;19.55;17.55;;;;;;;0.57;100.00;97501.69;10459314;28;20044;-71
2023/01/18 09:38:39;;;;;;;24.08;17.70;;;;;;;0.50;100.00;97508.81;10443146;28;20376;-71
2023/01/18 09:43:49;;;;;;;19.25;17.55;;;;;;;0.29;100.00;97501.72;10458063;28;20047;-72
2023/01/18 09:48:58;;;;;;;18.83;16.75;;;;;;;0.35;100.00;97506.69;10459322;28;20048;-73
2023/01/18 09:54:22;;;;;;;17.90;16.20;;;;;;;0.46;100.00;97510.66;10441176;28;20049;-73
2023/01/18 09:59:34;;;;;;;19.35;17.27;;;;;;;0.35;100.00;97507.53;10458466;28;20044;-71
2023/01/18 10:04:41;;;;;;;18.17;16.58;;;;;;;0.38;100.00;97510.03;10458703;28;20048;-72
2023/01/18 10:09:51;;;;;;;19.15;17.30;;;;;;;0.54;100.00;97525.09;10459604;28;20067;-71
2023/01/18 10:15:26;;;;;;;21.08;19.15;;;;;;;0.34;100.00;97521.38;10457558;28;20512;-73
2023/01/18 10:20:55;;;;;;;19.58;17.67;;;;;;;0.49;100.00;97513.16;10458460;28;20048;-71
2023/01/18 10:26:06;;;;;;;20.65;18.73;;;;;;;0.65;100.00;97516.06;10457234;28;20045;-71
2023/01/18 10:36:44;;;;;;;18.55;16.90;;;;;;;0.77;100.00;97516.56;10375824;28;20125;-73
2023/01/18 10:41:46;;;;;;;20.15;18.15;;;;;;;0.57;100.00;97523.22;10407146;28;20125;-73
2023/01/18 10:46:48;;;;;;;20.00;18.30;;;;;;;0.49;100.00;97528.66;10416253;28;20048;-72
2023/01/18 10:51:50;;;;;;;20.50;18.70;;;;;;;0.47;100.00;97539.91;10418035;28;20140;-73
2023/01/18 10:57:03;;;;;;;21.05;18.92;;;;;;;0.41;100.00;97548.72;10428077;28;20128;-73
2023/01/18 11:02:22;;;;;;;20.92;19.20;;;;;;;0.42;100.00;97554.72;10424251;28;20046;-73
2023/01/18 11:07:28;;;;;;;20.80;18.98;;;;;;;0.56;100.00;97562.91;10425525;28;20048;-73
2023/01/18 11:12:46;;;;;;;19.98;18.20;;;;;;;0.81;100.00;97565.56;10424157;28;20087;-74
2023/01/18 11:18:01;;;;;;;21.15;19.45;;;;;;;0.77;100.00;97563.97;10409053;28;20046;-74
2023/01/18 11:23:14;;;;;;;19.98;18.33;;;;;;;0.89;100.00;97570.50;10424872;28;20060;-73
2023/01/18 11:28:20;;;;;;;21.27;19.38;;;;;;;0.94;100.00;97572.03;10423689;28;20034;-73
2023/01/18 11:33:24;;;;;;;19.55;17.80;;;;;;;1.21;100.00;97577.19;10406868;28;20068;-73
2023/01/18 11:38:32;;;;;;;20.88;19.27;;;;;;;0.91;100.00;97577.28;10425382;28;20041;-74
2023/01/18 11:43:36;;;;;;;23.13;20.80;;;;;;;1.12;100.00;97586.09;10423650;28;20049;-75
2023/01/18 11:48:48;;;;;;;24.13;21.73;;;;;;;1.15;100.00;97583.41;10423768;28;20045;-73
2023/01/18 11:54:15;;;;;;;23.40;21.20;;;;;;;1.15;100.00;97592.91;10423711;28;20096;-74
2023/01/18 11:59:26;;;;;;;22.90;20.65;;;;;;;1.16;100.00;97605.81;10442728;28;20037;-75
2023/01/18 12:04:47;;;;;;;23.42;21.13;;;;;;;1.13;100.00;97611.06;10420654;28;20388;-75
2023/01/18 12:10:18;;;;;;;21.42;19.52;;;;;;;1.23;100.00;97609.88;10390636;28;20044;-75
2023/01/18 12:21:52;;;;;;;23.38;21.30;;;;;;;1.44;97.93;97618.66;10406638;28;20045;-74
2023/01/18 12:27:01;;;;;;;25.65;23.10;;;;;;;1.10;100.00;97620.66;10403464;28;20479;-74
2023/01/18 12:33:00;;;;;;;26.98;24.13;;;;;;;1.04;100.00;97638.97;10396948;28;20045;-74
2023/01/18 12:38:17;;;;;;;25.13;22.95;;;;;;;0.85;100.00;97652.50;10216465;28;20182;-74
2023/01/18 12:43:57;;;;;;;24.83;22.42;;;;;;;0.73;100.00;97666.63;10219063;29;20493;-73
2023/01/18 12:49:17;;;;;;;26.35;23.60;;;;;;;0.88;100.00;97675.66;10170882;29;20059;-74
2023/01/18 12:54:29;;;;;;;24.98;21.83;;;;;;;1.23;100.00;97684.91;10214560;29;20136;-74
2023/01/18 12:59:53;;;;;;;24.17;21.90;;;;;;;1.34;98.77;97684.59;10215278;29;20175;-74
2023/01/18 13:05:02;;;;;;;27.33;24.45;;;;;;;1.09;100.00;97688.84;10201556;29;20091;-75
2023/01/18 13:10:12;;;;;;;25.30;22.70;;;;;;;1.17;100.00;97698.06;10214646;29;20142;-75
2023/01/18 13:15:33;;;;;;;24.92;22.55;;;;;;;1.07;100.00;97714.75;10415353;28;20045;-75
2023/01/18 13:20:47;;;;;;;23.35;21.15;;;;;;;1.23;100.00;97721.13;10419231;28;20120;-73
2023/01/18 13:26:00;;;;;;;24.90;22.45;;;;;;;0.91;100.00;97722.13;10420411;28;20049;-73
2023/01/18 13:31:06;;;;;;;26.95;24.23;;;;;;;1.06;100.00;97735.50;10418800;28;20041;-74
2023/01/18 13:36:11;;;;;;;27.10;23.65;;;;;;;0.80;100.00;97746.59;10420297;28;20132;-74
2023/01/18 13:41:21;;;;;;;27.95;25.17;;;;;;;0.57;100.00;97750.69;10418735;28;20491;-74
2023/01/18 13:46:24;;;;;;;28.50;25.10;;;;;;;0.50;100.00;97755.22;10405518;28;20044;-76
2023/01/18 13:51:35;;;;;;;28.67;25.85;;;;;;;0.53;100.00;97762.00;10420387;28;20091;-74
2023/01/18 13:56:38;;;;;;;30.88;27.48;;;;;;;0.54;100.00;97768.06;10399926;28;20479;-74
2023/01/18 14:01:43;;;;;;;28.17;25.48;;;;;;;0.58;100.00;97782.59;10416566;28;20054;-73
2023/01/18 14:06:45;;;;;;;26.88;24.42;;;;;;;0.48;100.00;97793.16;10417817;28;20037;-74
2023/01/18 14:11:55;;;;;;;27.13;24.42;;;;;;;0.44;100.00;97801.03;10418774;28;20045;-73
2023/01/18 14:16:59;;;;;;;28.20;25.50;;;;;;;0.39;100.00;97800.31;10417331;28;20064;-73
2023/01/18 14:22:01;;;;;;;27.98;25.40;;;;;;;0.48;100.00;97807.81;10417061;28;20103;-73
2023/01/18 14:27:05;;;;;;;27.85;24.92;;;;;;;0.65;100.00;97823.72;10398730;28;20041;-73
2023/01/18 14:32:13;;;;;;;34.08;25.63;;;;;;;0.68;100.00;97836.59;10418183;28;20459;-74
2023/01/18 14:37:41;;;;;;;27.58;24.65;;;;;;;0.60;100.00;97835.09;10416999;28;20045;-73
2023/01/18 14:42:53;;;;;;;21.92;19.83;;;;;;;1.07;100.00;97843.28;10414610;28;20054;-73
2023/01/18 14:48:06;;;;;;;20.80;18.98;;;;;;;0.72;100.00;97861.47;10416954;28;20049;-73
2023/01/18 14:53:20;;;;;;;18.60;16.90;;;;;;;1.08;100.00;97870.84;10419957;28;20145;-73
2023/01/18 14:58:21;;;;;;;18.85;16.88;;;;;;;0.74;100.00;97879.53;10416361;28;20038;-73
2023/01/18 15:03:26;;;;;;;15.70;14.40;;;;;;;0.60;100.00;97894.56;10416676;28;20045;-73
2023/01/18 15:08:30;;;;;;;15.10;13.75;;;;;;;0.70;100.00;97902.03;10415434;28;20050;-73
2023/01/18 15:13:37;;;;;;;14.57;13.48;;;;;;;0.55;100.00;97914.50;10415869;28;20073;-73
2023/01/18 15:18:40;;;;;;;17.38;15.88;;;;;;;0.44;100.00;97927.69;10417489;28;20051;-73
2023/01/18 15:23:42;;;;;;;17.30;15.98;;;;;;;0.33;100.00;97935.72;10415315;28;20042;-74
2023/01/18 15:28:44;;;;;;;17.58;16.20;;;;;;;0.32;100.00;97948.69;10411630;28;20092;-72
2023/01/18 15:33:46;;;;;;;17.45;15.95;;;;;;;0.23;100.00;97957.50;10397167;28;20507;-72
2023/01/18 15:38:47;;;;;;;18.70;17.20;;;;;;;0.21;100.00;97965.28;10418963;28;20112;-70
2023/01/18 15:43:50;;;;;;;17.40;16.08;;;;;;;0.33;100.00;97984.81;10421920;28;20156;-69
2023/01/18 15:48:57;;;;;;;19.25;17.55;;;;;;;0.32;100.00;97990.03;10421923;28;20044;-72
2023/01/18 15:53:58;;;;;;;17.65;16.25;;;;;;;0.32;100.00;97998.63;10445788;28;20529;-72
2023/01/18 15:59:08;;;;;;;18.05;16.50;;;;;;;0.24;100.00;98009.13;10446087;28;20061;-72
2023/01/18 16:04:23;;;;;;;16.50;14.88;;;;;;;0.21;100.00;98016.94;10437333;28;20056;-73
2023/01/18 16:09:25;;;;;;;13.05;12.13;;;;;;;0.21;100.00;98016.09;10422052;28;20041;-73
2023/01/18 16:14:27;;;;;;;12.77;11.88;;;;;;;0.16;100.00;98015.38;10420972;28;20087;-72
2023/01/18 16:19:50;;;;;;;11.15;10.35;;;;;;;0.21;100.00;98032.44;10427280;28;20041;-72
2023/01/18 16:25:17;;;;;;;11.38;10.52;;;;;;;0.15;100.00;98048.09;10460816;28;20072;-73
2023/01/18 16:30:24;;;;;;;11.63;10.73;;;;;;;0.17;100.00;98060.97;10462533;28;20544;-72
2023/01/18 16:35:27;;;;;;;11.75;10.85;;;;;;;0.10;100.00;98062.84;10475291;22;20128;-70
2023/01/18 16:40:29;;;;;;;11.90;11.10;;;;;;;0.11;100.00;98074.03;10460220;28;20079;-69
2023/01/18 16:45:36;;;;;;;11.13;10.32;;;;;;;-0.01;100.00;98080.28;10460407;28;20041;-69
2023/01/18 16:50:38;;;;;;;11.82;10.93;;;;;;;0.06;100.00;98081.03;10443149;28;20037;-70
2023/01/18 16:55:42;;;;;;;12.38;11.45;;;;;;;0.03;100.00;98087.09;10484630;28;20119;-71
2023/01/18 17:00:53;;;;;;;12.45;11.55;;;;;;;0.05;100.00;98105.19;10501963;28;20493;-72
2023/01/18 17:05:56;;;;;;;12.02;11.13;;;;;;;0.39;100.00;98116.47;10483584;28;20040;-72
2023/01/18 17:10:58;;;;;;;11.23;10.25;;;;;;;0.13;100.00;98123.94;10501525;28;20040;-72
2023/01/18 17:15:59;;;;;;;9.80;9.10;;;;;;;0.01;100.00;98137.97;10483601;28;20045;-70
2023/01/18 17:21:01;;;;;;;10.38;9.48;;;;;;;0.10;100.00;98147.25;10500972;28;20049;-72
2023/01/18 17:26:03;;;;;;;12.98;11.88;;;;;;;0.18;100.00;98151.41;10502164;28;20501;-72
2023/01/18 17:31:05;;;;;;;7.85;7.25;;;;;;;0.20;100.00;98154.78;10500937;28;20111;-71
2023/01/18 17:36:07;;;;;;;7.35;6.85;;;;;;;0.09;100.00;98172.25;10482698;28;20426;-72
2023/01/18 17:41:17;;;;;;;8.15;7.35;;;;;;;0.11;100.00;98178.22;10500595;28;20052;-72
2023/01/18 17:46:27;;;;;;;9.02;8.32;;;;;;;0.04;100.00;98194.72;10499438;28;20064;-71
2023/01/18 17:51:29;;;;;;;12.00;11.05;;;;;;;0.05;100.00;98195.59;10499306;28;20512;-70
2023/01/18 17:56:31;;;;;;;10.48;9.73;;;;;;;-0.02;100.00;98200.00;10463934;28;20036;-72
2023/01/18 18:01:33;;;;;;;8.90;8.20;;;;;;;0.09;100.00;98210.13;10456990;28;20045;-72
2023/01/18 18:06:35;;;;;;;9.27;8.60;;;;;;;0.08;100.00;98213.59;10457712;28;20088;-72
2023/01/18 18:11:46;;;;;;;9.55;8.77;;;;;;;-0.05;100.00;98226.72;10425971;28;20068;-72
2023/01/18 18:16:48;;;;;;;6.93;6.43;;;;;;;-0.12;100.00;98227.72;10440752;28;20068;-71
2023/01/18 18:21:50;;;;;;;6.20;5.70;;;;;;;-0.19;100.00;98244.19;10457743;28;20051;-71
2023/01/18 18:26:52;;;;;;;5.47;5.07;;;;;;;-0.22;100.00;98244.28;10439348;28;20048;-72
2023/01/18 18:31:54;;;;;;;5.30;4.80;;;;;;;-0.31;100.00;98255.59;10440216;28;20049;-71
2023/01/18 18:36:55;;;;;;;5.97;5.50;;;;;;;-0.21;100.00;98266.63;10456677;28;20076;-71
2023/01/18 18:41:57;;;;;;;8.10;7.50;;;;;;;-0.35;100.00;98282.34;10457244;28;20045;-71
2023/01/18 18:46:59;;;;;;;6.53;5.93;;;;;;;-0.32;100.00;98290.03;10456632;28;20065;-71
2023/01/18 18:52:04;;;;;;;6.35;4.78;;;;;;;-0.50;100.00;98310.97;10439141;28;20060;-71
2023/01/18 18:57:06;;;;;;;4.72;4.32;;;;;;;-0.35;100.00;98312.47;10491052;28;20079;-71
2023/01/18 19:02:11;;;;;;;4.20;3.90;;;;;;;-0.54;100.00;98329.94;10479308;28;20050;-71
2023/01/18 19:07:16;;;;;;;3.28;2.97;;;;;;;-0.49;100.00;98335.03;10497877;28;20415;-71
2023/01/18 19:12:17;;;;;;;3.67;3.38;;;;;;;-0.51;100.00;98346.25;10497279;28;20048;-71
2023/01/18 19:17:19;;;;;;;4.82;3.60;;;;;;;-0.59;100.00;98352.41;10504166;28;20037;-71
2023/01/18 19:22:31;;;;;;;3.80;3.25;;;;;;;-0.53;100.00;98358.34;10504840;28;20036;-71
2023/01/18 19:27:33;;;;;;;4.72;4.22;;;;;;;-0.54;100.00;98373.81;10455816;28;20568;-71
2023/01/18 19:32:35;;;;;;;5.05;4.20;;;;;;;-0.45;100.00;98385.75;10445262;28;20490;-71
2023/01/18 19:37:37;;;;;;;5.07;3.92;;;;;;;-0.62;100.00;98399.75;10462844;28;20078;-71
2023/01/18 19:42:39;;;;;;;6.78;5.22;;;;;;;-0.75;100.00;98405.94;10463565;28;20429;-71
2023/01/18 19:47:41;;;;;;;13.75;5.72;;;;;;;-0.62;100.00;98419.53;10429371;28;20174;-71
2023/01/18 19:52:44;;;;;;;6.22;5.63;;;;;;;-0.58;100.00;98429.78;10445140;28;20053;-71
2023/01/18 19:57:47;;;;;;;7.25;5.85;;;;;;;-0.52;100.00;98444.38;10463543;28;20052;-71
2023/01/18 20:02:49;;;;;;;10.18;6.57;;;;;;;-0.49;100.00;98454.63;10429271;28;20041;-71
2023/01/18 20:07:51;;;;;;;6.50;5.90;;;;;;;-0.51;100.00;98456.38;10445065;28;20061;-72
2023/01/18 20:12:53;;;;;;;6.60;6.00;;;;;;;-0.51;100.00;98474.44;10462280;28;20055;-71
2023/01/18 20:17:54;;;;;;;5.88;5.32;;;;;;;-0.46;100.00;98476.97;10462032;28;20045;-72
2023/01/18 20:22:56;;;;;;;9.23;6.70;;;;;;;-0.43;100.00;98480.38;10444022;28;20116;-72
2023/01/18 20:27:59;;;;;;;7.30;5.63;;;;;;;-0.37;100.00;98489.75;10444725;28;20037;-72
2023/01/18 20:33:01;;;;;;;13.68;8.07;;;;;;;-0.35;100.00;98490.63;10444982;28;20036;-72
2023/01/18 20:38:03;;;;;;;14.30;9.32;;;;;;;-0.27;100.00;98492.22;10463794;28;20045;-72
2023/01/18 20:43:05;;;;;;;13.32;9.73;;;;;;;-0.38;100.00;98498.41;10463370;28;20048;-72
2023/01/18 20:48:07;;;;;;;11.85;10.65;;;;;;;-0.34;100.00;98505.22;10428963;28;20051;-73
2023/01/18 20:53:10;;;;;;;11.35;10.32;;;;;;;-0.23;100.00;98508.50;10444248;28;20502;-73
2023/01/18 20:58:12;;;;;;;12.07;9.30;;;;;;;-0.15;100.00;98517.03;10462222;28;20445;-73
2023/01/18 21:03:18;;;;;;;12.45;9.93;;;;;;;-0.09;100.00;98519.53;10445884;28;20045;-73
2023/01/18 21:08:20;;;;;;;11.55;9.43;;;;;;;0.07;100.00;98525.34;10444331;28;20052;-71
2023/01/18 21:13:23;;;;;;;13.85;10.52;;;;;;;0.28;98.54;98533.69;10444799;28;20145;-75
2023/01/18 21:18:26;;;;;;;11.88;10.77;;;;;;;0.01;99.19;98540.09;10446722;28;20052;-75
2023/01/18 21:23:28;;;;;;;21.20;11.55;;;;;;;-0.17;100.00;98539.44;10444628;28;20056;-75
2023/01/18 21:28:30;;;;;;;16.70;11.98;;;;;;;-0.35;100.00;98547.41;10443031;28;20079;-74
2023/01/18 21:33:32;;;;;;;13.20;11.98;;;;;;;-0.46;100.00;98550.09;10442689;28;20098;-73
2023/01/18 21:38:34;;;;;;;15.95;11.63;;;;;;;-0.33;100.00;98537.91;10459617;28;20059;-74
2023/01/18 21:49:01;;;;;;;12.80;11.32;;;;;;;-0.33;99.65;98540.50;10442000;28;20045;-74
2023/01/18 21:54:15;;;;;;;12.73;11.57;;;;;;;-0.27;98.97;98548.16;10442233;28;20052;-75
2023/01/18 21:59:17;;;;;;;13.82;12.38;;;;;;;-0.50;99.07;98551.00;10441685;28;20051;-73
2023/01/18 22:09:40;;;;;;;14.27;12.95;;;;;;;-0.70;98.14;98571.03;10441931;28;20053;-75
2023/01/18 22:14:43;;;;;;;14.68;12.43;;;;;;;-0.79;98.75;98575.41;10442640;28;20048;-74
2023/01/18 22:19:45;;;;;;;15.07;13.68;;;;;;;-0.87;99.20;98582.34;10440740;28;20045;-75
2023/01/18 22:24:47;;;;;;;14.50;13.18;;;;;;;-0.94;98.96;98588.44;10440520;28;20049;-75
2023/01/18 22:29:49;;;;;;;16.55;14.43;;;;;;;-1.24;99.91;98589.53;10439314;28;20037;-75
2023/01/18 22:34:51;;;;;;;20.20;14.73;;;;;;;-1.00;99.58;98585.06;10500024;22;20040;-74
2023/01/18 22:39:53;;;;;;;16.80;15.13;;;;;;;-1.09;97.09;98593.72;10489712;28;20116;-74
2023/01/18 22:44:55;;;;;;;15.77;14.25;;;;;;;-1.22;97.37;98592.13;10482158;28;20040;-75
2023/01/18 22:49:57;;;;;;;20.15;15.23;;;;;;;-1.38;97.12;98592.22;10489443;28;20051;-74
2023/01/18 22:54:59;;;;;;;20.52;14.85;;;;;;;-1.33;95.67;98592.16;10509075;28;20094;-74
2023/01/18 23:00:03;;;;;;;22.83;15.40;;;;;;;-1.47;95.02;98604.31;10512034;28;20444;-75
2023/01/18 23:05:06;;;;;;;16.30;14.77;;;;;;;-1.63;94.77;98616.44;10508904;28;20045;-74
2023/01/18 23:10:09;;;;;;;24.13;17.00;;;;;;;-1.72;94.40;98619.06;10496325;28;20048;-75
2023/01/18 23:20:31;;;;;;;16.80;14.75;;;;;;;-1.42;91.23;98636.06;10511581;28;20036;-74
2023/01/18 23:25:33;;;;;;;17.63;14.65;;;;;;;-1.41;89.53;98641.22;10509376;28;20050;-75
2023/01/18 23:30:34;;;;;;;18.17;14.70;;;;;;;-1.49;90.72;98645.56;10509623;28;20036;-74
2023/01/18 23:35:36;;;;;;;17.10;13.15;;;;;;;-1.73;90.70;98649.09;10508589;28;20040;-75
2023/01/18 23:56:41;;;;;;;17.20;15.48;;;;;;;-2.27;96.20;98694.78;10490451;28;20060;-74
